Time;durP1;ratioP1;P1;durP2;ratioP2;P2;SDS_P1;SDS_P2;PMS_P1;PMS_P2;Temp;Humidity;BMP_temperature;BMP_pressure;BME280_temperature;BME280_humidity;BME280_pressure;Samples;Min_cycle;Max_cycle;Signal;HPM_P1;HPM_P2
2023/06/26 00:02:13;;;;;;;4.75;3.30;;;28.80;51.90;;;;;;4955841;28;20174;-73
2023/06/26 00:04:38;;;;;;;3.80;3.08;;;28.70;51.80;;;;;;4955340;28;20050;-72
2023/06/26 00:07:04;;;;;;;3.45;3.10;;;28.70;51.90;;;;;;4958132;28;20035;-72
2023/06/26 00:09:30;;;;;;;4.10;3.30;;;28.70;51.90;;;;;;4959532;28;20110;-73
2023/06/26 00:11:56;;;;;;;3.38;3.05;;;28.60;51.90;;;;;;4959032;28;20032;-72
2023/06/26 00:14:22;;;;;;;4.15;3.15;;;28.60;51.90;;;;;;4958903;28;20050;-73
2023/06/26 00:16:50;;;;;;;4.03;3.30;;;28.60;52.00;;;;;;4958805;28;20034;-72
2023/06/26 00:19:16;;;;;;;4.05;3.30;;;28.50;52.00;;;;;;4958667;28;20043;-73
2023/06/26 00:21:46;;;;;;;4.28;3.22;;;28.50;52.00;;;;;;4957654;29;20513;-73
2023/06/26 00:24:13;;;;;;;4.18;3.53;;;28.40;52.00;;;;;;4958913;28;20032;-72
2023/06/26 00:26:38;;;;;;;3.75;3.20;;;28.40;52.00;;;;;;4958949;28;20039;-73
2023/06/26 00:29:04;;;;;;;4.25;3.50;;;28.40;52.10;;;;;;4942365;28;20042;-73
2023/06/26 00:31:30;;;;;;;4.35;3.63;;;28.40;52.10;;;;;;4957764;29;20122;-73
2023/06/26 00:33:56;;;;;;;4.45;3.42;;;28.30;52.00;;;;;;4958237;28;20032;-73
2023/06/26 00:36:23;;;;;;;4.38;3.25;;;28.30;52.10;;;;;;4941807;29;20027;-73
2023/06/26 00:38:52;;;;;;;3.83;3.10;;;28.30;52.10;;;;;;4958585;29;20480;-73
2023/06/26 00:41:18;;;;;;;5.03;3.35;;;28.30;52.20;;;;;;4941502;29;20024;-72
2023/06/26 00:43:43;;;;;;;4.03;3.15;;;28.20;52.20;;;;;;4957370;28;20058;-73
2023/06/26 00:46:12;;;;;;;4.20;3.33;;;28.20;52.20;;;;;;4941493;29;20027;-74
2023/06/26 00:48:40;;;;;;;4.10;3.10;;;28.10;52.20;;;;;;4958961;28;20039;-73
2023/06/26 00:51:07;;;;;;;4.35;3.53;;;28.10;52.20;;;;;;4958425;28;20112;-72
2023/06/26 00:53:34;;;;;;;3.97;3.08;;;28.10;52.20;;;;;;4941151;29;20035;-73
2023/06/26 00:56:01;;;;;;;3.88;3.08;;;28.10;52.30;;;;;;4958431;28;20032;-73
2023/06/26 00:58:28;;;;;;;3.90;3.08;;;28.00;52.30;;;;;;4957046;28;20050;-73
2023/06/26 01:00:57;;;;;;;3.80;3.15;;;28.00;52.30;;;;;;4958298;28;20046;-73
2023/06/26 01:03:24;;;;;;;3.67;3.00;;;28.00;52.30;;;;;;4941095;29;20063;-73
2023/06/26 01:05:52;;;;;;;4.97;3.10;;;27.90;52.30;;;;;;4957757;29;20416;-73
2023/06/26 01:08:18;;;;;;;4.25;3.45;;;27.90;52.40;;;;;;4956819;29;20039;-72
2023/06/26 01:10:45;;;;;;;3.67;3.03;;;27.90;52.40;;;;;;4957121;29;20049;-73
2023/06/26 01:13:13;;;;;;;4.45;3.42;;;27.90;52.40;;;;;;4958136;28;20488;-73
2023/06/26 01:15:40;;;;;;;3.92;3.50;;;27.90;52.50;;;;;;4940822;29;20431;-73
2023/06/26 01:18:06;;;;;;;4.32;3.28;;;27.80;52.50;;;;;;4956260;28;20039;-73
2023/06/26 01:20:36;;;;;;;4.00;3.30;;;27.70;52.40;;;;;;4956600;29;20086;-73
2023/06/26 01:23:23;;;;;;;3.72;3.03;;;27.80;52.50;;;;;;4957930;28;20027;-72
2023/06/26 01:26:11;;;;;;;3.90;3.22;;;27.70;52.50;;;;;;4957840;28;20027;-73
2023/06/26 01:28:41;;;;;;;3.45;2.90;;;27.70;52.60;;;;;;4956840;29;20031;-74
2023/06/26 01:31:08;;;;;;;3.58;2.92;;;27.60;52.50;;;;;;4957328;29;20031;-72
2023/06/26 01:33:34;;;;;;;4.10;3.38;;;27.60;52.60;;;;;;4957517;28;20063;-73
2023/06/26 01:36:01;;;;;;;3.83;3.10;;;27.60;52.60;;;;;;4956140;29;20063;-72
2023/06/26 01:38:27;;;;;;;5.25;3.28;;;27.50;52.60;;;;;;4956576;28;20074;-72
2023/06/26 01:40:56;;;;;;;3.70;3.03;;;27.50;52.70;;;;;;4957034;28;20039;-73
2023/06/26 01:43:31;;;;;;;4.63;3.38;;;27.50;52.70;;;;;;4956272;29;20035;-73
2023/06/26 01:46:11;;;;;;;4.25;3.17;;;27.40;52.70;;;;;;4957801;28;20031;-73
2023/06/26 01:48:52;;;;;;;4.38;3.47;;;27.40;52.70;;;;;;4956928;29;20047;-72
2023/06/26 01:51:20;;;;;;;4.10;3.38;;;27.40;52.80;;;;;;4956931;29;20444;-72
2023/06/26 01:53:52;;;;;;;4.25;3.25;;;27.40;52.80;;;;;;4956337;29;20392;-73
2023/06/26 01:56:19;;;;;;;4.47;3.38;;;27.30;52.80;;;;;;4956507;29;20054;-72
2023/06/26 01:58:47;;;;;;;4.28;3.50;;;27.30;52.80;;;;;;4940886;29;20039;-72
2023/06/26 02:01:13;;;;;;;4.60;3.50;;;27.30;52.90;;;;;;4955684;28;20444;-72
2023/06/26 02:03:39;;;;;;;4.00;3.33;;;27.20;52.90;;;;;;4955727;29;20058;-73
2023/06/26 02:06:04;;;;;;;3.75;3.05;;;27.20;52.90;;;;;;4955984;29;20036;-72
2023/06/26 02:08:30;;;;;;;4.03;3.30;;;27.20;53.00;;;;;;4957665;28;20031;-72
2023/06/26 02:10:56;;;;;;;4.78;3.55;;;27.20;53.00;;;;;;4955313;29;20032;-72
2023/06/26 02:13:22;;;;;;;5.43;3.35;;;27.20;53.00;;;;;;4955843;29;20127;-72
2023/06/26 02:15:48;;;;;;;4.60;3.45;;;27.20;53.10;;;;;;4939817;29;20396;-72
2023/06/26 02:18:14;;;;;;;5.07;3.95;;;27.10;53.00;;;;;;4955784;28;20051;-72
2023/06/26 02:20:40;;;;;;;4.53;3.60;;;27.10;53.10;;;;;;4955744;29;20035;-73
2023/06/26 02:23:05;;;;;;;4.60;3.38;;;27.10;53.10;;;;;;4957326;28;20460;-72
2023/06/26 02:25:31;;;;;;;5.18;3.80;;;27.10;53.20;;;;;;4939605;29;20035;-72
2023/06/26 02:27:57;;;;;;;5.10;3.65;;;27.00;53.20;;;;;;4956748;28;20035;-71
2023/06/26 02:30:22;;;;;;;4.10;3.30;;;27.00;53.20;;;;;;4954609;28;20035;-71
2023/06/26 02:32:48;;;;;;;4.03;2.97;;;26.90;53.10;;;;;;4939379;29;20039;-72
2023/06/26 02:35:14;;;;;;;4.07;3.30;;;26.90;53.20;;;;;;4939287;29;20063;-72
2023/06/26 02:37:41;;;;;;;4.70;3.63;;;26.90;53.20;;;;;;4956480;29;20043;-72
2023/06/26 02:40:09;;;;;;;3.92;3.15;;;26.90;53.30;;;;;;4955412;29;20105;-71
2023/06/26 02:42:36;;;;;;;5.10;3.17;;;26.80;53.20;;;;;;4939526;29;20126;-72
2023/06/26 02:45:02;;;;;;;4.05;3.33;;;26.80;53.30;;;;;;4955941;29;20130;-71
2023/06/26 02:47:30;;;;;;;4.82;3.42;;;26.80;53.30;;;;;;4939495;28;20042;-73
2023/06/26 02:49:55;;;;;;;4.25;3.05;;;26.80;53.40;;;;;;4939182;29;20366;-72
2023/06/26 02:52:21;;;;;;;3.88;2.78;;;26.70;53.30;;;;;;4955108;29;20039;-72
2023/06/26 02:54:47;;;;;;;4.10;2.70;;;26.70;53.30;;;;;;4939706;29;20023;-73
2023/06/26 02:57:14;;;;;;;3.72;2.88;;;26.70;53.30;;;;;;4954870;29;20058;-72
2023/06/26 02:59:40;;;;;;;3.58;2.90;;;26.70;53.30;;;;;;4939214;29;20039;-72
2023/06/26 03:02:07;;;;;;;3.50;2.60;;;26.60;53.30;;;;;;4955590;29;20031;-72
2023/06/26 03:04:42;;;;;;;3.42;2.70;;;26.60;53.30;;;;;;4955087;28;20118;-73
2023/06/26 03:07:11;;;;;;;3.03;2.35;;;26.60;53.40;;;;;;4954747;29;20472;-72
2023/06/26 03:09:38;;;;;;;3.72;2.60;;;26.60;53.40;;;;;;4938697;29;20203;-72
2023/06/26 03:12:04;;;;;;;4.05;2.80;;;26.60;53.40;;;;;;4954295;29;20042;-72
2023/06/26 03:14:31;;;;;;;4.18;2.67;;;26.50;53.40;;;;;;4939738;29;20034;-72
2023/06/26 03:16:58;;;;;;;2.83;2.33;;;26.50;53.40;;;;;;4955296;29;20368;-72
2023/06/26 03:19:25;;;;;;;3.42;2.22;;;26.50;53.50;;;;;;4954508;29;20073;-71
2023/06/26 03:22:11;;;;;;;3.35;2.40;;;26.40;53.40;;;;;;4954712;28;20054;-72
2023/06/26 03:24:37;;;;;;;3.83;2.80;;;26.40;53.40;;;;;;4955770;28;20027;-71
2023/06/26 03:27:03;;;;;;;2.88;2.20;;;26.40;53.50;;;;;;4954276;29;20125;-72
2023/06/26 03:29:29;;;;;;;4.03;2.33;;;26.40;53.50;;;;;;4938696;29;20046;-72
2023/06/26 03:31:56;;;;;;;3.15;2.30;;;26.40;53.50;;;;;;4955666;28;20035;-78
2023/06/26 03:34:22;;;;;;;2.65;2.35;;;26.40;53.60;;;;;;4953921;29;20055;-72
2023/06/26 03:36:48;;;;;;;3.75;2.28;;;26.30;53.50;;;;;;4938339;29;20039;-72
2023/06/26 03:39:15;;;;;;;3.30;2.30;;;26.30;53.60;;;;;;4955222;28;20170;-72
2023/06/26 03:41:41;;;;;;;2.75;2.10;;;26.30;53.60;;;;;;4953748;28;20499;-72
2023/06/26 03:44:07;;;;;;;3.50;2.50;;;26.20;53.60;;;;;;4938302;29;20046;-72
2023/06/26 03:46:42;;;;;;;3.65;2.50;;;26.20;53.70;;;;;;4954523;29;20468;-72
2023/06/26 03:49:08;;;;;;;2.83;2.17;;;26.20;53.70;;;;;;4954168;29;20056;-71
2023/06/26 03:51:34;;;;;;;2.72;2.20;;;26.10;53.70;;;;;;4954930;29;20090;-72
2023/06/26 03:53:59;;;;;;;2.92;2.15;;;26.10;53.70;;;;;;4954686;29;20372;-73
2023/06/26 03:56:26;;;;;;;3.42;2.20;;;26.10;53.80;;;;;;4939148;29;20503;-72
2023/06/26 03:58:52;;;;;;;3.33;2.28;;;26.10;53.80;;;;;;4953999;29;20047;-72
2023/06/26 04:01:19;;;;;;;3.33;2.35;;;26.00;53.80;;;;;;4953996;29;20099;-71
2023/06/26 04:03:45;;;;;;;3.40;2.35;;;26.00;53.90;;;;;;4938502;29;20035;-71
2023/06/26 04:06:11;;;;;;;3.40;2.30;;;26.00;53.90;;;;;;4954339;28;20027;-71
2023/06/26 04:08:38;;;;;;;2.85;2.10;;;26.00;53.90;;;;;;4954786;29;20040;-72
2023/06/26 04:11:04;;;;;;;4.25;2.22;;;26.00;54.00;;;;;;4938911;29;20114;-71
2023/06/26 04:13:29;;;;;;;3.67;2.20;;;26.00;54.10;;;;;;4954956;28;20444;-72
2023/06/26 04:15:55;;;;;;;2.70;2.00;;;25.90;54.00;;;;;;4954294;29;20066;-72
2023/06/26 04:18:21;;;;;;;3.22;2.30;;;25.90;54.00;;;;;;4953707;29;20051;-72
2023/06/26 04:21:08;;;;;;;3.72;2.00;;;25.90;54.10;;;;;;4937958;29;20046;-72
2023/06/26 04:23:35;;;;;;;2.63;1.88;;;25.80;54.10;;;;;;4955432;29;20033;-72
2023/06/26 04:26:02;;;;;;;3.28;2.22;;;25.80;54.10;;;;;;4954183;29;20035;-73
2023/06/26 04:28:28;;;;;;;4.00;2.20;;;25.80;54.20;;;;;;4937851;29;20122;-73
2023/06/26 04:30:54;;;;;;;3.00;1.83;;;25.80;54.20;;;;;;4955238;29;20178;-72
2023/06/26 04:33:20;;;;;;;3.35;2.13;;;25.70;54.20;;;;;;4953970;28;20071;-72
2023/06/26 04:35:48;;;;;;;3.05;2.30;;;25.80;54.30;;;;;;4954835;28;20056;-72
2023/06/26 04:38:15;;;;;;;3.53;2.20;;;25.70;54.30;;;;;;4954319;29;20062;-74
2023/06/26 04:40:41;;;;;;;4.55;2.58;;;25.70;54.40;;;;;;4954971;28;20066;-73
2023/06/26 04:43:06;;;;;;;3.20;1.90;;;25.70;54.40;;;;;;4955322;28;20133;-72
2023/06/26 04:45:32;;;;;;;2.90;2.17;;;25.70;54.50;;;;;;4954546;29;20042;-72
2023/06/26 04:48:00;;;;;;;3.00;1.98;;;25.60;54.40;;;;;;4955019;28;20237;-72
2023/06/26 04:50:28;;;;;;;3.17;2.17;;;25.60;54.50;;;;;;4954636;28;20043;-73
2023/06/26 04:52:55;;;;;;;3.67;2.05;;;25.60;54.50;;;;;;4955315;28;20035;-74
2023/06/26 04:55:23;;;;;;;3.42;2.25;;;25.60;54.50;;;;;;4957340;29;20034;-74
2023/06/26 04:57:49;;;;;;;3.80;2.30;;;25.60;54.60;;;;;;4957088;29;20035;-76
2023/06/26 05:00:15;;;;;;;2.58;1.92;;;25.50;54.50;;;;;;4956821;28;20122;-73
2023/06/26 05:02:41;;;;;;;3.05;2.03;;;25.60;54.60;;;;;;4958765;28;20062;-74
2023/06/26 05:05:07;;;;;;;2.97;1.88;;;25.60;54.70;;;;;;4958500;28;20424;-72
2023/06/26 05:07:33;;;;;;;3.65;2.35;;;25.50;54.60;;;;;;4957895;28;20105;-72
2023/06/26 05:09:59;;;;;;;3.80;2.25;;;25.50;54.60;;;;;;4958715;28;20058;-74
2023/06/26 05:12:25;;;;;;;3.05;2.05;;;25.50;54.60;;;;;;4956897;29;20163;-74
2023/06/26 05:14:51;;;;;;;3.63;2.10;;;25.40;54.60;;;;;;4957827;29;20035;-75
2023/06/26 05:17:16;;;;;;;3.92;2.20;;;25.40;54.60;;;;;;4940863;29;20122;-73
2023/06/26 05:19:42;;;;;;;3.28;2.30;;;25.40;54.60;;;;;;4957708;28;20074;-72
2023/06/26 05:22:09;;;;;;;3.45;2.03;;;25.40;54.60;;;;;;4958259;28;20130;-72
2023/06/26 05:24:35;;;;;;;3.55;2.08;;;25.40;54.70;;;;;;4957065;29;20473;-74
2023/06/26 05:27:02;;;;;;;3.40;1.80;;;25.40;54.70;;;;;;4957790;29;20150;-73
2023/06/26 05:29:29;;;;;;;3.22;1.92;;;25.40;54.70;;;;;;4958148;28;20138;-73
2023/06/26 05:31:56;;;;;;;4.03;2.20;;;25.40;54.80;;;;;;4957463;29;20027;-73
2023/06/26 05:34:23;;;;;;;3.40;2.10;;;25.40;54.80;;;;;;4957368;29;20058;-73
2023/06/26 05:36:57;;;;;;;4.13;2.38;;;25.40;54.80;;;;;;4956268;28;20476;-74
2023/06/26 05:39:24;;;;;;;3.33;2.10;;;25.30;54.80;;;;;;4957422;28;20035;-74
2023/06/26 05:41:51;;;;;;;3.15;2.00;;;25.30;54.70;;;;;;4956829;29;20042;-75
2023/06/26 05:44:16;;;;;;;3.30;2.17;;;25.30;54.70;;;;;;4957925;28;20033;-75
2023/06/26 05:46:43;;;;;;;3.58;2.20;;;25.30;54.80;;;;;;4940414;28;20449;-74
2023/06/26 05:49:09;;;;;;;3.90;1.95;;;25.30;54.80;;;;;;4940808;29;20055;-73
2023/06/26 05:51:35;;;;;;;4.68;2.25;;;25.30;54.80;;;;;;4956173;29;20031;-73
2023/06/26 05:54:01;;;;;;;3.90;1.92;;;25.30;54.80;;;;;;4957951;28;20094;-73
2023/06/26 05:56:28;;;;;;;3.15;2.17;;;25.30;54.80;;;;;;4956085;29;20028;-74
2023/06/26 05:58:54;;;;;;;4.13;2.25;;;25.30;54.80;;;;;;4957837;28;20042;-75
2023/06/26 06:01:20;;;;;;;3.80;1.88;;;25.30;54.80;;;;;;4957482;28;20042;-74
2023/06/26 06:03:45;;;;;;;3.90;2.17;;;25.30;54.90;;;;;;4956537;28;20137;-74
2023/06/26 06:06:12;;;;;;;3.50;1.80;;;25.30;54.90;;;;;;4957311;28;20468;-74
2023/06/26 06:08:37;;;;;;;3.45;2.08;;;25.30;54.90;;;;;;4956925;28;20046;-73
2023/06/26 06:11:03;;;;;;;3.85;1.92;;;25.30;54.90;;;;;;4957146;28;20035;-74
2023/06/26 06:13:29;;;;;;;3.05;1.98;;;25.30;54.90;;;;;;4957194;28;20519;-73
2023/06/26 06:15:55;;;;;;;3.55;2.13;;;25.30;55.00;;;;;;4957579;28;20086;-74
2023/06/26 06:18:21;;;;;;;2.80;1.80;;;25.30;55.00;;;;;;4956878;28;20373;-73
2023/06/26 06:20:47;;;;;;;4.45;2.22;;;25.30;55.00;;;;;;4956712;28;20049;-73
2023/06/26 06:23:12;;;;;;;3.40;2.13;;;25.30;55.00;;;;;;4957400;28;20038;-74
2023/06/26 06:25:38;;;;;;;3.17;2.17;;;25.30;55.00;;;;;;4955689;29;20069;-74
2023/06/26 06:28:07;;;;;;;2.70;1.80;;;25.30;55.10;;;;;;4956382;29;20035;-74
2023/06/26 06:30:33;;;;;;;2.80;1.70;;;25.30;55.10;;;;;;4956766;28;20031;-74
2023/06/26 06:32:58;;;;;;;2.85;1.92;;;25.30;55.10;;;;;;4955550;29;20086;-74
2023/06/26 06:35:24;;;;;;;2.42;1.75;;;25.30;55.10;;;;;;4955097;29;20366;-74
2023/06/26 06:37:50;;;;;;;3.55;1.92;;;25.30;55.00;;;;;;4939480;29;20074;-74
2023/06/26 06:40:16;;;;;;;3.20;1.85;;;25.30;55.00;;;;;;4955153;29;20069;-74
2023/06/26 06:42:42;;;;;;;4.65;1.70;;;25.30;55.00;;;;;;4955282;29;20530;-73
2023/06/26 06:45:08;;;;;;;2.92;1.80;;;25.30;55.00;;;;;;4956568;28;20027;-73
2023/06/26 06:47:34;;;;;;;2.70;1.60;;;25.30;55.00;;;;;;4956823;28;20039;-70
2023/06/26 06:50:07;;;;;;;2.50;1.65;;;25.20;54.90;;;;;;4954879;29;20061;-71
2023/06/26 06:52:40;;;;;;;2.75;1.92;;;25.30;55.00;;;;;;4955068;29;20035;-71
2023/06/26 06:55:08;;;;;;;2.97;1.70;;;25.30;55.00;;;;;;4956048;28;20030;-72
2023/06/26 06:57:38;;;;;;;2.47;1.60;;;25.30;55.00;;;;;;4955917;29;20085;-71
2023/06/26 07:00:08;;;;;;;2.95;1.67;;;25.30;55.00;;;;;;4955958;28;20031;-76
2023/06/26 07:02:35;;;;;;;2.67;1.80;;;25.30;55.00;;;;;;4955114;29;20030;-77
2023/06/26 07:05:03;;;;;;;4.07;2.08;;;25.30;55.00;;;;;;4955935;28;20031;-74
2023/06/26 07:07:33;;;;;;;2.75;1.58;;;25.30;55.60;;;;;;4938974;28;20494;-72
2023/06/26 07:10:02;;;;;;;2.30;1.60;;;25.30;55.00;;;;;;4955799;28;20027;-76
2023/06/26 07:12:28;;;;;;;3.22;1.80;;;25.30;54.90;;;;;;4955757;28;20042;-76
2023/06/26 07:14:55;;;;;;;2.25;1.58;;;25.30;54.90;;;;;;4954618;29;20485;-77
2023/06/26 07:17:21;;;;;;;2.92;1.60;;;25.30;54.90;;;;;;4955607;28;20028;-77
2023/06/26 07:19:47;;;;;;;2.78;1.98;;;25.30;54.90;;;;;;4955253;29;20040;-77
2023/06/26 07:22:13;;;;;;;2.42;1.65;;;25.30;54.90;;;;;;4954456;29;20035;-77
2023/06/26 07:24:39;;;;;;;2.90;1.45;;;25.30;54.90;;;;;;4955049;29;20508;-77
2023/06/26 07:27:05;;;;;;;2.35;1.70;;;25.30;54.80;;;;;;4956402;28;20031;-77
2023/06/26 07:29:30;;;;;;;2.58;1.67;;;25.40;54.90;;;;;;4954946;29;20361;-77
2023/06/26 07:31:56;;;;;;;2.17;1.42;;;25.40;54.90;;;;;;4955580;28;20031;-77
2023/06/26 07:34:22;;;;;;;2.10;1.77;;;25.40;54.80;;;;;;4954533;29;20366;-74
2023/06/26 07:36:47;;;;;;;1.92;1.60;;;25.40;54.80;;;;;;4955643;28;20093;-74
2023/06/26 07:39:13;;;;;;;2.53;1.60;;;25.50;54.80;;;;;;4938115;29;20047;-77
2023/06/26 07:41:39;;;;;;;2.60;1.58;;;25.50;54.80;;;;;;4955405;28;20503;-76
2023/06/26 07:44:05;;;;;;;2.33;1.77;;;25.50;54.70;;;;;;4923172;29;20031;-77
2023/06/26 07:46:30;;;;;;;2.53;1.65;;;25.60;54.70;;;;;;4955592;28;20062;-77
2023/06/26 07:48:56;;;;;;;2.60;1.70;;;25.60;54.70;;;;;;4955293;28;20039;-77
2023/06/26 07:51:22;;;;;;;2.10;1.52;;;25.60;54.70;;;;;;4955490;28;20032;-77
2023/06/26 07:53:48;;;;;;;2.03;1.52;;;25.70;54.70;;;;;;4938379;28;20039;-77
2023/06/26 07:56:13;;;;;;;1.63;1.30;;;25.70;54.70;;;;;;4954056;29;20387;-76
2023/06/26 07:58:39;;;;;;;1.88;1.60;;;25.70;54.70;;;;;;4954706;29;20071;-76
2023/06/26 08:01:05;;;;;;;2.50;1.85;;;25.70;54.60;;;;;;4955404;28;20043;-76
2023/06/26 08:03:30;;;;;;;2.15;1.60;;;25.80;54.70;;;;;;4955393;28;20086;-76
2023/06/26 08:05:57;;;;;;;2.05;1.45;;;25.80;54.60;;;;;;4954916;29;20035;-76
2023/06/26 08:08:22;;;;;;;2.13;1.75;;;25.80;54.60;;;;;;4955587;29;20035;-76
2023/06/26 08:10:48;;;;;;;1.38;1.20;;;25.90;54.70;;;;;;4953856;29;20035;-76
2023/06/26 08:13:14;;;;;;;1.67;1.30;;;25.90;54.70;;;;;;4955548;28;20032;-76
2023/06/26 08:15:40;;;;;;;2.25;1.58;;;25.90;54.60;;;;;;4938131;28;20035;-76
2023/06/26 08:18:05;;;;;;;3.25;1.65;;;26.00;54.60;;;;;;4954062;29;20082;-76
2023/06/26 08:20:31;;;;;;;2.25;1.58;;;26.00;54.60;;;;;;4938079;29;20035;-76
2023/06/26 08:22:57;;;;;;;2.47;1.65;;;26.10;54.60;;;;;;4955216;28;20066;-76
2023/06/26 08:25:23;;;;;;;3.28;1.80;;;26.10;54.60;;;;;;4954057;29;20067;-76
2023/06/26 08:27:48;;;;;;;2.47;1.60;;;26.10;54.60;;;;;;4956740;28;20042;-76
2023/06/26 08:30:14;;;;;;;1.48;1.38;;;26.10;54.50;;;;;;4958716;28;20067;-76
2023/06/26 08:32:40;;;;;;;1.70;1.55;;;26.20;54.50;;;;;;4958698;28;20035;-75
2023/06/26 08:35:10;;;;;;;2.95;1.60;;;26.20;54.40;;;;;;4958863;28;20031;-75
2023/06/26 08:37:35;;;;;;;1.67;1.50;;;26.30;54.50;;;;;;4942297;28;20407;-76
2023/06/26 08:40:01;;;;;;;2.47;1.65;;;26.30;55.10;;;;;;4957403;29;20035;-75
2023/06/26 08:42:27;;;;;;;1.83;1.50;;;26.40;54.50;;;;;;4958506;28;20027;-76
2023/06/26 08:44:53;;;;;;;1.50;1.33;;;26.40;54.40;;;;;;4958396;28;20038;-75
2023/06/26 08:47:19;;;;;;;2.25;1.40;;;26.50;54.50;;;;;;4957358;29;20039;-76
2023/06/26 08:50:07;;;;;;;2.22;1.50;;;26.50;54.40;;;;;;4957525;29;20035;-76
2023/06/26 08:52:44;;;;;;;2.67;1.75;;;26.50;54.50;;;;;;4957590;29;20082;-76
2023/06/26 08:55:12;;;;;;;2.45;1.60;;;26.60;54.40;;;;;;4959030;28;20114;-74
2023/06/26 08:57:38;;;;;;;1.85;1.50;;;26.60;54.30;;;;;;4941535;29;20191;-74
2023/06/26 09:00:05;;;;;;;2.13;1.38;;;26.70;54.30;;;;;;4941383;29;20376;-74
2023/06/26 09:02:31;;;;;;;2.10;1.70;;;26.80;54.30;;;;;;4957298;29;20059;-75
2023/06/26 09:04:57;;;;;;;2.38;1.50;;;26.80;54.20;;;;;;4958748;28;20075;-74
2023/06/26 09:07:23;;;;;;;2.17;1.60;;;26.80;54.10;;;;;;4940963;29;20065;-74
2023/06/26 09:09:48;;;;;;;2.70;1.40;;;26.90;54.10;;;;;;4940874;28;20518;-74
2023/06/26 09:12:15;;;;;;;1.80;1.33;;;27.00;54.10;;;;;;4958004;28;20038;-74
2023/06/26 09:14:41;;;;;;;2.15;1.30;;;27.00;54.00;;;;;;4957945;28;20136;-74
2023/06/26 09:17:07;;;;;;;2.13;1.30;;;27.10;54.00;;;;;;4957852;28;20117;-74
2023/06/26 09:19:36;;;;;;;2.30;1.60;;;27.10;53.90;;;;;;4956489;29;20496;-73
2023/06/26 09:22:02;;;;;;;1.73;1.58;;;27.10;53.90;;;;;;4958337;28;20031;-73
2023/06/26 09:24:28;;;;;;;1.63;1.40;;;27.20;53.80;;;;;;4956962;29;20432;-73
2023/06/26 09:26:54;;;;;;;1.98;1.30;;;27.20;53.70;;;;;;4956633;29;20039;-73
2023/06/26 09:29:20;;;;;;;1.48;1.33;;;27.30;53.70;;;;;;4957862;28;20094;-73
2023/06/26 09:31:46;;;;;;;2.00;1.48;;;27.30;53.60;;;;;;4958100;29;20036;-73
2023/06/26 09:34:12;;;;;;;1.52;1.30;;;27.40;53.60;;;;;;4957585;28;20039;-73
2023/06/26 09:36:37;;;;;;;1.33;1.20;;;27.50;53.60;;;;;;4958392;28;20523;-72
2023/06/26 09:39:08;;;;;;;2.97;1.60;;;27.50;53.50;;;;;;4956126;28;20487;-73
2023/06/26 09:41:38;;;;;;;1.73;1.33;;;27.50;53.40;;;;;;4956234;28;20043;-72
2023/06/26 09:44:05;;;;;;;1.58;1.10;;;27.60;53.30;;;;;;4957984;28;20086;-72
2023/06/26 09:46:31;;;;;;;1.50;1.38;;;27.70;53.30;;;;;;4956217;29;20547;-72
2023/06/26 09:49:09;;;;;;;3.13;1.50;;;27.70;53.30;;;;;;4956640;29;20112;-72
2023/06/26 09:51:35;;;;;;;1.88;1.45;;;27.80;53.30;;;;;;4957156;29;20067;-72
2023/06/26 09:54:02;;;;;;;1.50;1.08;;;27.80;53.20;;;;;;4956036;28;20031;-76
2023/06/26 09:56:29;;;;;;;1.27;1.00;;;27.90;53.20;;;;;;4956705;29;20038;-68
2023/06/26 09:59:04;;;;;;;2.10;1.30;;;27.90;52.70;;;;;;4957525;29;20031;-71
2023/06/26 10:01:31;;;;;;;2.63;1.40;;;27.90;52.00;;;;;;4955958;29;20518;-71
2023/06/26 10:03:57;;;;;;;2.28;0.80;;;28.00;51.60;;;;;;4957916;29;20041;-71
2023/06/26 10:06:35;;;;;;;1.90;1.13;;;28.00;51.20;;;;;;4956939;28;20052;-71
2023/06/26 10:09:02;;;;;;;2.47;1.10;;;28.00;51.00;;;;;;4958076;29;20042;-69
2023/06/26 10:11:43;;;;;;;1.33;0.90;;;28.00;50.70;;;;;;4957323;28;20046;-72
2023/06/26 10:14:11;;;;;;;1.70;1.00;;;28.00;50.50;;;;;;4957930;28;20039;-71
2023/06/26 10:16:39;;;;;;;4.00;1.42;;;28.00;50.30;;;;;;4956799;28;20034;-70
2023/06/26 10:19:08;;;;;;;2.42;1.45;;;28.00;50.00;;;;;;4956327;29;20046;-70
2023/06/26 10:21:38;;;;;;;2.17;1.40;;;28.00;49.50;;;;;;4957229;28;20113;-70
2023/06/26 10:24:06;;;;;;;1.38;0.82;;;28.10;49.50;;;;;;4955939;28;20482;-70
2023/06/26 10:26:37;;;;;;;1.35;0.90;;;28.10;49.30;;;;;;4956557;28;20123;-70
2023/06/26 10:29:03;;;;;;;1.70;1.00;;;28.10;49.10;;;;;;4956780;28;20497;-70
2023/06/26 10:31:30;;;;;;;1.42;0.95;;;28.10;48.90;;;;;;4957049;28;20063;-70
2023/06/26 10:33:56;;;;;;;1.50;0.93;;;28.10;48.70;;;;;;4955687;29;20376;-70
2023/06/26 10:36:29;;;;;;;2.08;1.10;;;28.10;48.40;;;;;;4956791;29;20138;-71
2023/06/26 10:38:57;;;;;;;2.08;1.05;;;28.10;48.10;;;;;;4956322;29;20445;-70
2023/06/26 10:41:24;;;;;;;3.15;0.90;;;28.10;48.10;;;;;;4955526;29;20058;-70
2023/06/26 10:44:03;;;;;;;2.50;1.02;;;28.20;48.10;;;;;;4956229;28;20028;-70
2023/06/26 10:46:32;;;;;;;2.85;1.08;;;28.20;48.00;;;;;;4955527;29;20467;-70
2023/06/26 10:49:01;;;;;;;1.98;1.00;;;28.20;47.80;;;;;;4956161;28;20077;-70
2023/06/26 10:51:28;;;;;;;1.33;1.00;;;28.20;47.60;;;;;;4956252;28;20043;-70
2023/06/26 10:53:55;;;;;;;1.63;1.00;;;28.20;47.40;;;;;;4956323;28;20094;-71
2023/06/26 10:56:21;;;;;;;1.25;0.90;;;28.20;47.00;;;;;;4956512;28;20419;-70
2023/06/26 10:58:47;;;;;;;1.35;0.93;;;28.30;46.80;;;;;;4955071;29;20040;-70
2023/06/26 11:01:26;;;;;;;1.05;0.73;;;28.30;46.60;;;;;;4955989;28;20027;-71
2023/06/26 11:03:57;;;;;;;1.48;1.08;;;28.30;46.40;;;;;;4956273;28;20035;-70
2023/06/26 11:06:23;;;;;;;1.00;0.80;;;28.30;46.30;;;;;;4954870;29;20031;-70
2023/06/26 11:08:56;;;;;;;1.92;0.88;;;28.30;46.20;;;;;;4955856;28;20050;-70
2023/06/26 11:11:42;;;;;;;0.90;0.70;;;28.30;46.00;;;;;;4955784;28;20063;-71
2023/06/26 11:14:08;;;;;;;1.27;0.88;;;28.30;45.80;;;;;;4954547;28;20043;-70
2023/06/26 11:16:34;;;;;;;1.98;1.08;;;28.20;45.80;;;;;;4923224;29;20499;-71
2023/06/26 11:19:01;;;;;;;1.08;0.90;;;28.20;45.70;;;;;;4955186;29;20067;-71
2023/06/26 11:21:27;;;;;;;1.33;1.02;;;28.20;45.80;;;;;;4955832;28;20046;-71
2023/06/26 11:23:58;;;;;;;2.53;1.00;;;28.30;45.90;;;;;;4955603;28;20038;-70
2023/06/26 11:26:23;;;;;;;1.25;0.93;;;28.30;46.00;;;;;;4954924;29;20404;-71
2023/06/26 11:28:55;;;;;;;1.75;0.90;;;28.20;45.90;;;;;;4955826;28;20039;-70
2023/06/26 11:31:28;;;;;;;1.45;0.85;;;28.20;45.50;;;;;;4938435;29;20147;-71
2023/06/26 11:33:56;;;;;;;1.88;1.15;;;28.20;45.30;;;;;;4954209;29;20039;-70
2023/06/26 11:36:26;;;;;;;1.40;0.90;;;28.20;45.30;;;;;;4955682;28;20384;-70
2023/06/26 11:39:08;;;;;;;1.80;0.85;;;28.20;45.10;;;;;;4954729;29;20071;-70
2023/06/26 11:41:38;;;;;;;0.77;0.77;;;28.10;45.10;;;;;;4956008;28;20039;-70
2023/06/26 11:44:14;;;;;;;0.80;0.73;;;28.10;45.00;;;;;;4955885;28;20039;-70
2023/06/26 11:46:39;;;;;;;0.95;0.85;;;28.10;44.90;;;;;;4956367;29;20082;-70
2023/06/26 11:49:06;;;;;;;2.17;1.13;;;28.00;45.00;;;;;;4954928;29;20375;-71
2023/06/26 11:51:33;;;;;;;2.83;1.20;;;28.00;45.00;;;;;;4955202;28;20081;-70
2023/06/26 11:54:05;;;;;;;2.20;1.00;;;28.00;45.10;;;;;;4955155;29;20114;-70
2023/06/26 11:56:31;;;;;;;1.38;1.00;;;28.00;45.20;;;;;;4955162;29;20046;-70
2023/06/26 11:59:00;;;;;;;0.93;0.77;;;28.00;45.00;;;;;;4955075;28;20031;-69
2023/06/26 12:01:30;;;;;;;1.77;0.73;;;28.00;45.10;;;;;;4956305;28;20050;-71
2023/06/26 12:04:00;;;;;;;2.60;1.10;;;28.00;45.10;;;;;;4960571;28;20503;-71
2023/06/26 12:06:26;;;;;;;1.85;0.98;;;28.00;45.00;;;;;;4960369;28;20075;-72
2023/06/26 12:08:52;;;;;;;1.95;0.95;;;28.00;45.10;;;;;;4945000;29;20117;-71
2023/06/26 12:11:19;;;;;;;1.45;0.77;;;28.00;45.10;;;;;;4960559;28;20110;-71
2023/06/26 12:13:46;;;;;;;1.88;1.10;;;27.90;45.00;;;;;;4960558;28;20144;-71
2023/06/26 12:16:13;;;;;;;2.55;1.17;;;27.90;44.90;;;;;;4961374;28;20476;-71
2023/06/26 12:18:40;;;;;;;1.98;1.17;;;28.00;44.80;;;;;;4960347;28;20126;-71
2023/06/26 12:21:06;;;;;;;2.05;1.10;;;27.90;44.60;;;;;;4944501;29;20066;-71
2023/06/26 12:23:41;;;;;;;1.83;0.80;;;27.90;44.60;;;;;;4960679;28;20051;-71
2023/06/26 12:26:20;;;;;;;2.08;1.00;;;27.90;44.50;;;;;;4945161;29;20399;-71
2023/06/26 12:28:46;;;;;;;1.95;0.80;;;27.90;44.50;;;;;;4961302;28;20035;-71
2023/06/26 12:31:16;;;;;;;2.40;1.00;;;27.90;44.50;;;;;;4960085;29;20062;-71
2023/06/26 12:33:45;;;;;;;1.13;0.80;;;27.90;44.50;;;;;;4961157;28;20388;-71
2023/06/26 12:36:14;;;;;;;1.05;0.90;;;27.90;44.30;;;;;;4961626;28;20053;-71
2023/06/26 12:38:45;;;;;;;2.08;1.00;;;27.90;44.40;;;;;;4961116;28;20090;-71
2023/06/26 12:41:15;;;;;;;1.98;1.02;;;27.90;44.40;;;;;;4961738;28;20047;-71
2023/06/26 12:43:41;;;;;;;1.13;0.80;;;27.90;44.30;;;;;;4944918;28;20340;-71
2023/06/26 12:46:07;;;;;;;1.02;0.77;;;27.80;44.00;;;;;;4961224;28;20115;-71
2023/06/26 12:48:46;;;;;;;1.00;0.77;;;27.80;44.00;;;;;;4961180;28;20125;-71
2023/06/26 12:51:13;;;;;;;1.15;0.80;;;27.80;44.10;;;;;;4962965;29;20031;-71